Bruno Alves

Chefscout - Criciuma
2 Sep 2027
Donnerstag
Verarbeitung

Persönlichkeit

Anpassungsfähigkeit (20) Ehrgeiz (4) Kontroverse (11) Loyalität (13) Druck (10) Professionalität (5) Fairness (11) Temperament (4)

Profil

Trainerstil Demokratisch
Lizenz Nationale B
Entschlossenheit 6
Menschenführung 10
Motivation 8
Disziplin 7
Arbeitszufriedenheit
100%
Ermüdung
0%
Rolle Chefscout
Gehalt 61.6K p/W
Vertrag 14.03.2028

Leistung

Verhalten Gut
Trainingseffektivität
24%
Spielerentwicklung
50%
Verletzungsprävention
50%
Taktische Umsetzung
20%

Letzte Ereignisse

Nahm an einer Scouting-Besprechung teil jetzt
Empfahl ein Transferziel jetzt
Empfahl ein Transferziel jetzt
Empfahl ein Transferziel jetzt
Empfahl ein Transferziel jetzt
Nahm an einer Scouting-Besprechung teil jetzt
Nahm an einer Scouting-Besprechung teil 7T her
Nahm an einer Scouting-Besprechung teil 7T her

Aktuell beobachtet

183
Spieler Verein Status Fähigkeit Vertrauen Beobachtet Zuletzt beobachtet Letzte Stimme
Riquelme Grêmio Aktiv 91 / 112 72% 1 14.06.2027 Befürworten
Dion Beljo Standard Liege Aktiv 131 / 132 66% 1 01.06.2027 Befürworten
Markus Jensen Nacional Aktiv 116 / 114 40% 5 31.05.2027 -
Yussif Saidu Zaragoza Aktiv 132 / 122 40% 2 31.05.2027 -
Francisco Fernandes Porto Aktiv 79 / 106 40% 2 31.05.2027 -
Iwan Morgan Grimsby Town Aktiv 119 / 124 40% 8 30.05.2027 -
Federico Serra Arezzo Aktiv 81 / 83 40% 4 28.05.2027 -
Paco Esteban Virtus Entella Aktiv 91 / 97 40% 3 28.05.2027 -
Hassan Beja AFC Leopards Aktiv 97 / 99 40% 1 28.05.2027 -
Fletcher Holman Swindon Town Aktiv 82 / 91 40% 5 25.05.2027 -
Dilan Neves Benfica Aktiv 83 / 98 40% 6 25.05.2027 -
Tiziano Dornell Danubio Aktiv 115 / 126 40% 3 20.05.2027 -
Gustavo Ferreira Benfica Aktiv 82 / 91 40% 6 19.05.2027 -
Matvii Ponomarenko Dynamo Kyiv Aktiv 115 / 105 40% 5 18.05.2027 -
Sidiki Chérif Coventry City Aktiv 129 / 139 40% 8 16.05.2027 -
Leo Castledine Middlesbrough Aktiv 123 / 139 40% 4 16.05.2027 -
Darlvin Yeboah Bechem United Aktiv 88 / 81 40% 7 15.05.2027 -
Víctor Guzmán Sporting CP Aktiv 102 / 93 40% 6 13.05.2027 -
Manuel Simões Sporting CP Aktiv 71 / 80 40% 1 13.05.2027 -
Borna Knezović Casarano Aktiv 93 / 110 40% 2 09.05.2027 -
Chineme Chinonso Ikorodu City Aktiv 87 / 93 40% 3 08.05.2027 -
Octávio Silva Artigas Aktiv 85 / 78 40% 1 06.05.2027 -
Lorenzo De Leo Renate Aktiv 94 / 116 40% 4 05.05.2027 -
Ben Ahmed Kohili Paradou Aktiv 94 / 120 40% 5 03.05.2027 -
Rayan Bournemouth Aktiv 145 / 148 40% 3 03.05.2027 -
Gabriel Melo Dugopolje Aktiv 93 / 83 40% 2 02.05.2027 -
Hazeem Bakre Crawley Town Aktiv 85 / 89 40% 7 02.05.2027 -
Amaury Morales Pumas UNAM Aktiv 117 / 131 40% 4 01.05.2027 -
Zaïd BafdilI Sporting CP Aktiv 89 / 95 40% 4 01.05.2027 -
Chinonso Chibueze Harrogate Town Aktiv 69 / 92 40% 1 01.05.2027 -
Luke Baartman ES Mostaganem Aktiv 106 / 114 40% 5 29.04.2027 -
Alagie Wally Veres Aktiv 80 / 87 40% 1 29.04.2027 -
Mateus Mané Manchester United Aktiv 126 / 156 40% 3 28.04.2027 -
Martim Cunha Porto Aktiv 108 / 125 40% 3 27.04.2027 -
Monty Batlhabane Polokwane City Aktiv 90 / 84 40% 1 27.04.2027 -
Baba N'Diaye Chelyabinsk Aktiv 80 / 89 40% 2 26.04.2027 -
Toni Tamarit Alverca Aktiv 112 / 128 40% 8 24.04.2027 -
Godbless Ayeke AS Korofina Aktiv 79 / 70 40% 2 24.04.2027 -
Mathis Jangeal Famalicao Aktiv 107 / 98 40% 8 23.04.2027 -
Jofre Torrents Ajax Aktiv 114 / 141 40% 1 23.04.2027 Mehr Infos nötig
Umar Abubakar Famalicao Aktiv 95 / 81 40% 2 21.04.2027 -
Njabulo Hlongwane Binga Aktiv 75 / 73 40% 1 21.04.2027 -
Dramane Kamagaté USM Alger Aktiv 103 / 127 40% 2 19.04.2027 -
Kelian Baruti Liamba Estoril Praia Aktiv 89 / 114 40% 4 18.04.2027 -
Leandro Martins Benfica Aktiv 103 / 97 40% 2 18.04.2027 -
Michael Noumon Heart of Lions Aktiv 74 / 74 40% 3 14.04.2027 -
Jonás Luna Santa Clara Aktiv 116 / 113 40% 5 12.04.2027 -
Ethan Williams Peterborough United Aktiv 113 / 107 40% 1 11.04.2027 -
Vasco Santos Oliveirense Aktiv 94 / 110 40% 1 11.04.2027 -
David Kalokoh Ajax Aktiv 116 / 135 40% 3 09.04.2027 -
Salvador Blopá Casa Pia Aktiv 117 / 131 40% 1 06.04.2027 -
Daniel Costa Sporting CP Aktiv 92 / 86 40% 1 06.04.2027 -
Wendell Livyi Bereh Aktiv 87 / 113 40% 1 05.04.2027 -
Williams Furman Black Aces Aktiv 65 / 73 40% 3 03.04.2027 -
Lwanda Mbanjwa Maritzburg United Aktiv 84 / 91 40% 2 03.04.2027 -
Jovan Milošević Braga Aktiv 126 / 134 40% 6 03.04.2027 -
Ernie Weaver AFC Wimbledon Aktiv 105 / 118 40% 2 03.04.2027 -
Keagan Tau Ajax Cape Town Aktiv 90 / 114 40% 1 03.04.2027 -
Arthur Maron São Paulo Aktiv 89 / 101 40% 2 31.03.2027 -
Fuzy Taylor Medeama Aktiv 73 / 91 40% 1 29.03.2027 -
José Pachuca Puebla Aktiv 116 / 123 40% 2 26.03.2027 -
Josh Smith Accrington Stanley Aktiv 85 / 92 40% 1 26.03.2027 -
Rayhan Momade Sporting CP Aktiv 100 / 113 40% 1 26.03.2027 -
Dom Ballard Leyton Orient Aktiv 123 / 130 40% 4 24.03.2027 -
Bastien Meupiyou Alverca Aktiv 116 / 109 40% 2 19.03.2027 -
Joaquin Seys Club Brugge Aktiv 126 / 119 40% 1 19.03.2027 -
Gonçalo Oliveira Benfica Aktiv 115 / 114 40% 1 17.03.2027 -
João Capucho Benfica Aktiv 102 / 102 40% 1 15.03.2027 -
Dylan Lawlor Cardiff City Aktiv 123 / 122 40% 1 15.03.2027 -
Sule John US Forces Armees Aktiv 79 / 85 40% 2 12.03.2027 -
Matvey Kislyak CSKA Moscow Aktiv 130 / 139 40% 2 11.03.2027 -
Percy Jali Free State Stars Aktiv 86 / 104 40% 1 11.03.2027 -
Matías Gómez Granada Aktiv 114 / 106 40% 1 11.03.2027 Mehr Infos nötig
João Teixeira Porto Aktiv 99 / 117 40% 1 08.03.2027 -
Zane Albarus Cambridge United Aktiv 99 / 107 40% 1 08.03.2027 -
Deivid Washington RC Strasbourg Aktiv 116 / 134 40% 5 06.03.2027 -
Daniel Vernattus Metalist Aktiv 83 / 105 40% 1 05.03.2027 -
Thomas Waddingham Portsmouth Aktiv 112 / 109 40% 1 03.03.2027 -
Will Lankshear Middlesbrough Aktiv 118 / 124 40% 1 27.02.2027 -
Rudi Almeida Famalicao Aktiv 85 / 81 40% 3 19.02.2027 -
Nordan Mukiele Stade Rennais Aktiv 88 / 103 40% 1 16.02.2027 -
Lévy Néne FC Nordsjaelland Aktiv 114 / 111 40% 1 13.02.2027 -
Ognjen Bondžulić Mladost Lucani Aktiv 96 / 98 40% 1 13.02.2027 -
Léo Jacó Santa Clara Aktiv 101 / 102 40% 1 05.02.2027 -
Lucas Høgsberg RC Strasbourg Aktiv 126 / 150 40% 1 07.01.2027 -
Sabil Hansen Randers Aktiv 117 / 118 40% 1 07.01.2027 -
Vinícius Lopes Santa Clara Aktiv 119 / 131 40% 3 16.12.2026 -
Dinis Pinto Moreirense Aktiv 122 / 147 40% 1 16.12.2026 -
Amar Memić Casa Pia Aktiv 127 / 128 62% 1 01.12.2026 Befürworten
Andreas Trimmel Red Bull Salzburg Aktiv 131 / 131 60% 1 01.12.2026 Befürworten
Kévin Zohi Torreense Aktiv 117 / 103 40% 2 29.11.2026 -
Peter Shalulile Mamelodi Sundowns Aktiv 136 / 111 40% 3 29.11.2026 Beobachten
Yousef Salech Cardiff City Aktiv 126 / 125 40% 1 29.11.2026 -
Oli McBurnie Hull City Aktiv 123 / 149 40% 3 28.11.2026 -
Juninho Pumas UNAM Aktiv 134 / 119 40% 4 28.11.2026 -
Elijah Adebayo Luton Town Aktiv 112 / 108 40% 1 28.11.2026 -
Zé Leite Leixões Aktiv 108 / 115 40% 4 27.11.2026 -
André Silva Tondela Aktiv 124 / 144 40% 1 27.11.2026 -
Negueba Mirassol Aktiv 125 / 110 40% 3 25.11.2026 -
Dawda Camara Alverca Aktiv 124 / 136 40% 6 25.11.2026 -
Lewis Morgan SuperSport United Aktiv 123 / 142 40% 3 24.11.2026 Beobachten
Yassin Fortuné Vizela Aktiv 112 / 97 40% 1 24.11.2026 -
Juan Muñoz Leiria Aktiv 134 / 120 40% 5 19.11.2026 -
Pablo Ruan Nacional Aktiv 112 / 110 40% 2 18.11.2026 -
Ricardo Valente SV Ried Aktiv 101 / 107 40% 1 18.11.2026 -
Hany Mukhtar Spezia Aktiv 142 / 122 40% 1 16.11.2026 Mehr Infos nötig
Figueiredo Alverca Aktiv 135 / 142 40% 5 15.11.2026 Beobachten
Yoane Wissa Newcastle United Aktiv 135 / 137 40% 1 15.11.2026 -
Yanis Begraoui Estoril Praia Aktiv 123 / 115 40% 1 15.11.2026 -
Andre Green AVS Aktiv 115 / 125 40% 3 14.11.2026 -
Jair Silva Leiria Aktiv 115 / 126 40% 1 13.11.2026 -
Tomané Tondela Aktiv 109 / 91 40% 1 13.11.2026 -
Pablo Fernández Leiria Aktiv 124 / 92 40% 2 12.11.2026 -
Mésaque Djú Portimonense Aktiv 99 / 107 40% 1 11.11.2026 -
Chuchu Ramírez Nacional Aktiv 139 / 114 40% 4 07.11.2026 -
Pau Víctor AVS Aktiv 136 / 134 40% 3 06.11.2026 -
Jonathan Calleri Sport Recife Aktiv 139 / 147 40% 5 06.11.2026 Beobachten
Romelu Castagne KV Oostende Aktiv 133 / 127 40% 2 03.11.2026 Mehr Infos nötig
Bamba Dieng Crvena Zvezda Aktiv 123 / 116 40% 1 03.11.2026 -
Jalen Blesa Rio Ave Aktiv 123 / 135 40% 1 02.11.2026 -
Heung-Min Son Los Angeles Football Club Aktiv 154 / 168 40% 2 01.11.2026 -
Marezi Portsmouth Aktiv 122 / 133 40% 1 01.11.2026 -
Miguel Falé Pacos de Ferreira Aktiv 99 / 104 40% 1 31.10.2026 -
Sead Hakšabanović Malmo FF Aktiv 117 / 133 40% 1 31.10.2026 -
Ianis Stoica Estrela da Amadora Aktiv 121 / 121 40% 1 30.10.2026 -
Mohammed Bouldini Académico de Viseu Aktiv 122 / 133 40% 4 27.10.2026 -
Joe Gelhardt Hull City Aktiv 124 / 146 40% 1 27.10.2026 -
André Lacximicant Estoril Praia Aktiv 113 / 96 40% 1 25.10.2026 -
Aune Heggebø West Bromwich Albion Aktiv 128 / 126 40% 1 25.10.2026 -
Rodrigo Marquês Oliveirense Aktiv 86 / 98 40% 1 20.10.2026 -
Manuel Ospina Cortulua Aktiv 122 / 114 40% 1 19.10.2026 -
Rui Pedro Felgueiras Aktiv 100 / 112 40% 1 18.10.2026 -
Fotis Ioannidis Rio Ave Aktiv 148 / 126 40% 6 17.10.2026 -
Rodrigo Bogarín Barracas Central Aktiv 127 / 127 40% 2 15.10.2026 -
Andrés Rentería Jaguares Aktiv 115 / 111 40% 1 14.10.2026 -
Kévin Denkey FC Cincinnati Aktiv 120 / 128 40% 1 12.10.2026 -
Bénie Traoré New York City Aktiv 128 / 134 40% 2 10.10.2026 -
Dylan Nandín Arouca Aktiv 124 / 128 40% 1 10.10.2026 -
Héctor Hernández Gil Vicente Aktiv 114 / 116 40% 5 09.10.2026 -
Paulinho Toluca Aktiv 150 / 146 40% 1 08.10.2026 -
Alfonso Trezza Arouca Aktiv 121 / 129 40% 4 07.10.2026 -
Juanda Fuentes Penafiel Aktiv 99 / 121 40% 2 07.10.2026 -
Adnan Courtois KV Oostende Aktiv 126 / 151 40% 1 03.10.2026 -
Tiago Leite Felgueiras Aktiv 113 / 95 40% 1 01.10.2026 -
Mandla Mahlangu Ajax Cape Town Aktiv 103 / 112 40% 1 28.09.2026 -
Sam Surridge Nashville SC Aktiv 126 / 133 40% 1 25.09.2026 -
Jordan Morris Seattle Sounders Aktiv 115 / 125 40% 1 24.09.2026 -
Antoine Griezmann Orlando City Aktiv 144 / 161 40% 2 19.09.2026 -
Antony Alonso Deportivo Riestra Aktiv 126 / 132 40% 1 15.09.2026 -
Mo Dauda Portimonense Aktiv 92 / 107 40% 1 15.09.2026 -
Marcus Ingvartsen San Diego Football Club Aktiv 116 / 120 40% 1 14.09.2026 -
Lucas Moura Sport Recife Aktiv 142 / 139 40% 3 09.09.2026 -
Maximiliano Rodríguez Huachipato Aktiv 121 / 109 40% 1 07.09.2026 -
Jorge Meireles AVS Aktiv 101 / 106 40% 1 07.09.2026 -
Wessam Abou Ali Columbus Crew Aktiv 129 / 117 40% 1 06.09.2026 -
Willian José Bahia Aktiv 130 / 123 40% 1 05.09.2026 -
Martín Ojeda Orlando City Aktiv 131 / 113 40% 4 04.09.2026 -
Luis Muriel Junior Aktiv 122 / 127 40% 1 04.09.2026 -
Jorge Aguirre Torreense Aktiv 94 / 88 40% 1 03.09.2026 -
André Clovis Leiria Aktiv 115 / 133 40% 1 03.09.2026 -
João Costa Santa Clara Aktiv 119 / 122 40% 2 01.09.2026 -
Javier Correa Colo-Colo Aktiv 124 / 129 40% 1 30.08.2026 -
Anthony Carter Vizela Aktiv 99 / 114 40% 1 29.08.2026 -
Maximiliano Gómez Nacional Aktiv 122 / 133 40% 1 28.08.2026 -
Gustavo Silva Vitoria Guimaraes Aktiv 120 / 114 40% 1 28.08.2026 -
Arnel Jakupović Vitoria Guimaraes Aktiv 126 / 118 40% 2 27.08.2026 -
Léo Bonatini Brondby Aktiv 117 / 98 40% 1 27.08.2026 -
Dejan Joveljić Seattle Sounders Aktiv 122 / 139 40% 1 23.08.2026 -
Freddy Gomez La Equidad Aktiv 133 / 142 40% 1 22.08.2026 -
John Kennedy Fluminense Aktiv 120 / 115 40% 1 22.08.2026 -
Gabriel Barbosa Farense Aktiv 107 / 97 40% 1 19.08.2026 -
Roméo Beney Famalicao Aktiv 112 / 114 40% 3 16.08.2026 -
Alexandre Duville-Parsemain Moreirense Aktiv 108 / 121 40% 1 12.08.2026 -
Henrique Araújo Casa Pia Aktiv 125 / 105 40% 1 12.08.2026 -
Tamble Monteiro Rio Ave Aktiv 125 / 129 40% 2 09.08.2026 -
Jonny Arriba Cádiz Aktiv 109 / 118 40% 1 06.08.2026 -
Bryan Róchez Chaves Aktiv 115 / 108 40% 1 06.08.2026 -
Luciano Sport Recife Aktiv 129 / 129 40% 1 05.08.2026 -
João Vasconcelos Santa Clara Aktiv 97 / 98 40% 1 05.08.2026 -
Miguel Nogueira Vitoria Guimaraes Aktiv 119 / 100 40% 1 05.08.2026 -
William Gomes Porto Aktiv 129 / 130 40% 1 04.08.2026 -
Ricard Sánchez Estoril Praia Aktiv 125 / 131 40% 1 01.08.2026 -
Sergi Altimira Sporting CP Aktiv 144 / 146 40% 1 01.08.2026 -